Flight Track Log - Related Links

Times and Time Zones

All times are in EDT time to prevent confusion due to time zone crossing. See the ENY3395 flight status page for this flight to view local times or setup timezone preferences in your user account.

Time Position Orientation Groundspeed Altitude Reporting Facility
EDT Latitude Longitude Course Direction KTS MPH feet Rate Location/Type
Mon 10:44:30 AM 41.9500 -87.9833 270° West 186 214 4,100  Level Chicago TRACON
Mon 10:45:19 AM 41.9297 -88.0408 245° Southwest 206 237 6,000 2,782 Climbing Chicago Center
Mon 10:46:00 AM 41.9439 -88.2860 265° West  Level FlightAware Approximate
Mon 10:46:20 AM 41.9097 -88.1331 254° West 270 311 9,200  Level Chicago Center
Mon 10:47:00 AM 41.9347 -88.4149 265° West  Level FlightAware Approximate
Mon 10:47:22 AM 41.9114 -88.2408 271° West 270 311 12,400  Level Chicago Center
Mon 10:48:00 AM 41.9255 -88.5439 265° West  Level FlightAware Approximate
Mon 10:48:23 AM 41.9119 -88.3497 270° West 292 336 14,600  Level Chicago Center
Mon 10:49:00 AM 41.9167 -88.6687 270° West  Level FlightAware Approximate
Mon 10:49:25 AM 41.9128 -88.4711 271° West 320 368 16,500  Level Chicago Center
Mon 10:50:27 AM 41.9119 -88.5950 270° West 337 388 18,600 1,707 Climbing Chicago Center
Mon 10:51:28 AM 41.9119 -88.7192 270° West 337 388 20,000 1,415 Climbing Chicago Center
Mon 10:52:30 AM 41.9125 -88.8486 270° West 345 397 21,500 1,645 Climbing Chicago Center
Mon 10:53:32 AM 41.9061 -89.0144 267° West 365 420 23,400 1,694 Climbing Chicago Center
Mon 10:54:34 AM 41.8978 -89.1508 265° West 368 423 25,000 1,512 Climbing Chicago Center
Mon 10:55:35 AM 41.8911 -89.2903 266° West 375 432 26,500 1,268 Climbing Chicago Center
Mon 10:56:37 AM 41.8817 -89.4314 265° West 376 433 27,600 726 Climbing Chicago Center
Mon 10:57:39 AM 41.8719 -89.5756 265° West 386 444 28,000  Climbing Chicago Center
Mon 10:58:41 AM 41.8628 -89.7167 265° West 385 443 27,600 -585 Descending Chicago Center
Mon 10:59:42 AM 41.8539 -89.8572 265° West 382 440 26,800 -780 Descending Chicago Center
Mon 11:00:44 AM 41.8439 -90.0053 265° West 384 442 26,000 -387 Descending Chicago Center
Mon 11:01:46 AM 41.8317 -90.1789 265° West 391 450 26,000  Level Chicago Center
Mon 11:02:47 AM 41.8217 -90.3236 265° West 390 449 26,000  Level Chicago Center
Mon 11:03:49 AM 41.8100 -90.4697 264° West 391 450 26,000  Level Chicago Center
Mon 11:04:51 AM 41.8000 -90.6144 265° West 391 450 26,000  Level Chicago Center
Mon 11:05:53 AM 41.7886 -90.7625 264° West 395 455 26,000  Level Chicago Center
Mon 11:06:54 AM 41.7767 -90.9067 264° West 395 455 26,000  Level Chicago Center
Mon 11:07:56 AM 41.7669 -91.0522 265° West 393 452 26,000  Level Chicago Center
Mon 11:08:58 AM 41.7558 -91.1933 264° West 390 449 26,000  Level Chicago Center
Mon 11:10:00 AM 41.7414 -91.3650 264° West 390 449 26,000  Level Chicago Center
Mon 11:11:02 AM 41.7306 -91.5081 264° West 389 448 26,000  Level Chicago Center
Mon 11:12:04 AM 41.7189 -91.6475 264° West 381 438 26,000 -629 Level Chicago Center
Mon 11:13:06 AM 41.7072 -91.7903 264° West 381 438 24,700 -1,122 Descending Chicago Center
Mon 11:14:07 AM 41.6956 -91.9347 264° West 387 445 23,700 -1,463 Descending Chicago Center
Mon 11:15:09 AM 41.6833 -92.0786 264° West 390 449 21,700 -1,935 Descending Chicago Center
Mon 11:16:11 AM 41.6700 -92.2178 263° West 381 438 19,700 -1,887 Descending Chicago Center
Mon 11:17:13 AM 41.6553 -92.3869 263° West 381 438 17,800 -1,694 Descending Chicago Center
Mon 11:18:15 AM 41.6439 -92.5261 264° West 380 437 16,200 -1,500 Descending Chicago Center
Mon 11:19:17 AM 41.6308 -92.6631 263° West 372 428 14,700 -1,500 Descending Chicago Center
Mon 11:20:19 AM 41.6214 -92.8092 265° West 367 422 13,100 -1,659 Descending Chicago Center
Mon 11:21:20 AM 41.6178 -92.9269 268° West 332 382 11,300 -1,512 Descending Chicago Center
Mon 11:22:22 AM 41.6167 -93.0275 269° West 288 331 10,000 -1,371 Descending Chicago Center
Mon 11:23:05 AM 41.6319 -93.0950 287° West 241 277 8,900 -1,500 Descending Minneapolis Center
Mon 11:23:42 AM 41.6331 -93.1597 271° West 250 288 8,000 -1,475 Descending Minneapolis Center
Mon 11:24:06 AM 41.6439 -93.1861 299° West 251 289 7,400 -1,452 Descending Minneapolis Center
Mon 11:24:44 AM 41.6403 -93.2522 266° West 250 288 6,500 -1,475 Descending Minneapolis Center
Mon 11:25:07 AM 41.6456 -93.2806 284° West 253 291 5,900 -1,548 Descending Minneapolis Center
Mon 11:25:46 AM 41.6408 -93.3469 265° West 254 292 4,900 -1,500 Descending Minneapolis Center
Mon 11:26:07 AM 41.6469 -93.3753 286° West 262 302 4,400 -1,258 Descending Minneapolis Center
Mon 11:26:48 AM 41.6408 -93.4472 264° West 253 291 3,600 -1,082 Descending Minneapolis Center
Mon 11:27:08 AM 41.6400 -93.4642 266° West 235 270 3,300 -677 Descending Minneapolis Center
Mon 11:27:50 AM 41.6114 -93.5167 234° Southwest 218 251 2,900 -492 Descending Minneapolis Center
Mon 11:28:09 AM 41.6075 -93.5261 241° Southwest 186 214 2,800 -387 Descending Minneapolis Center
Mon 11:28:52 AM 41.5817 -93.5689 231° Southwest 168 193 2,500 -400 Descending Minneapolis Center
Mon 11:29:09 AM 41.5833 -93.5686 North 132 152 2,400 -581 Descending Minneapolis Center
Mon 11:29:54 AM 41.5606 -93.6089 233° Southwest 139 160 1,900 -689 Descending Minneapolis Center
Mon 11:30:10 AM 41.5628 -93.6078 21° North 125 144 1,700 -774 Descending Minneapolis Center
Mon 11:30:56 AM 41.5397 -93.6469 232° Southwest 130 150 1,100 -444 Descending Minneapolis Center
Mon 11:31:58 AM 41.5275 -93.6686 233° Southwest 53 61 900 -97 Descending Minneapolis Center
Mon 11:33:00 AM 41.5300 -93.6628 60° Northeast 20 23 900 48 Level Minneapolis Center
Mon 11:34:02 AM 41.5344 -93.6547 54° Northeast 25 29 1,000 48 Climbing Minneapolis Center
Mon 11:35:04 AM 41.5350 -93.6558 304° West 6 7 1,000 -48 Level Minneapolis Center
Mon 11:36:06 AM 41.5372 -93.6489 67° East 17 20 900 -48 Descending Minneapolis Center
Mon 11:37:08 AM 41.5358 -93.6503 217° Southwest 10 12 900 48 Level Minneapolis Center
Mon 11:38:10 AM 41.5333 -93.6508 189° South 9 10 1,000 97 Climbing Minneapolis Center

Login

Don't have an account? Register now (free) for customized features, flight alerts, and more!